SJ713 / PK-CMS 7700 Squawk Report (2nd of April, 2020)

Aircraft B738 Reg No. PK-CMS Age 14 years old
Model 737 Jet engines 2 First flight 03-04-06
Registered 04-05-16 Rollout 23-03-06 Delivered 20-04-06
Construction No. 33027 Line No. 1918 Series 8BK
ADSHEX 8A05D9 Airline name Sriwijaya Air Owner CIT Leasing Corporation
Airfield based Jakarta-Soekarno-Hatta Int'l~ ~PK First tracked N/A

Flight history for PK-CMS

Time Lat Lon Altitude Heading Speed Vertical Rate
2020-04-02 12:24:53 GMT -7.383453 112.808876 225 280 132 -832
2020-04-02 12:24:34 GMT -7.385466 112.820641 500 280 135 -832
2020-04-02 12:24:26 GMT -7.386154 112.825310 575 280 135 -832
2020-04-02 12:22:41 GMT -7.397011 112.892097 1,875 280 145 -768
2020-04-02 12:22:31 GMT -7.398010 112.898117 2,000 280 147 -896
2020-04-02 12:22:22 GMT -7.399155 112.905052 2,125 280 148 -704
2020-04-02 12:22:11 GMT -7.400208 112.911659 2,175 280 150 -192
2020-04-02 12:22:02 GMT -7.401306 112.918503 2,200 280 155 -192
2020-04-02 12:21:49 GMT -7.402830 112.927902 2,250 279 157 -384
2020-04-02 12:21:40 GMT -7.403761 112.934006 2,325 279 160 -384
2020-04-02 12:21:29 GMT -7.405064 112.942055 2,375 280 164 -64
2020-04-02 12:21:21 GMT -7.406275 112.949303 2,400 280 166 -256
2020-04-02 12:21:10 GMT -7.407578 112.956924 2,450 280 168 -192
2020-04-02 12:20:51 GMT -7.409720 112.972557 2,475 280 170 -256
2020-04-02 12:20:48 GMT -7.409580 112.974167 2,575 264 172 -448
2020-04-02 12:20:35 GMT -7.405530 112.983017 2,600 235 176 0
2020-04-02 12:20:19 GMT -7.395813 112.993736 2,600 228 194 0
2020-04-02 12:20:13 GMT -7.392495 112.997368 2,600 228 194 0
2020-04-02 12:20:06 GMT -7.387619 113.002670 2,600 228 200 -64
2020-04-02 12:19:56 GMT -7.381462 113.009346 2,625 228 207 64
2020-04-02 12:19:47 GMT -7.375259 113.016075 2,600 228 209 256
2020-04-02 12:19:36 GMT -7.368347 113.023621 2,600 228 213 0
2020-04-02 12:19:25 GMT -7.360519 113.032143 2,600 228 217 0
2020-04-02 12:19:15 GMT -7.354043 113.039139 2,600 228 225 0
2020-04-02 12:19:04 GMT -7.346649 113.047173 2,600 228 234 0
2020-04-02 12:14:54 GMT -7.110626 113.281662 6,025 219 358 -2624
2020-04-02 12:14:08 GMT -7.049638 113.329659 7,925 219 366 -2624
2020-04-02 12:14:03 GMT -7.041183 113.336266 8,200 219 367 -2624
2020-04-02 12:13:52 GMT -7.027852 113.346748 8,600 219 369 -2624
2020-04-02 12:13:14 GMT -6.974922 113.388329 10,200 218 381 -2688
2020-04-02 12:13:05 GMT -6.962723 113.397949 10,550 219 386 -2624
2020-04-02 12:12:55 GMT -6.948061 113.409401 11,000 219 391 -3200
2020-04-02 12:12:31 GMT -6.915894 113.434784 12,100 219 396 -3200
2020-04-02 12:12:14 GMT -6.888614 113.456238 13,125 219 398 -3456
2020-04-02 12:12:11 GMT -6.886414 113.457954 13,200 219 398 -3520
2020-04-02 12:11:51 GMT -6.857284 113.480858 14,175 219 407 -3520
2020-04-02 12:11:43 GMT -6.844666 113.490814 14,500 219 408 -3136
2020-04-02 12:11:39 GMT -6.838291 113.495827 14,825 219 407 -3392
2020-04-02 12:11:29 GMT -6.823906 113.507141 15,275 219 411 -3392
2020-04-02 12:11:16 GMT -6.803423 113.523338 15,975 219 415 -3200
2020-04-02 12:11:03 GMT -6.784103 113.538536 16,650 219 417 -3264
2020-04-02 12:10:50 GMT -6.765793 113.553009 17,250 219 420 -3136
2020-04-02 12:10:46 GMT -6.757782 113.559341 17,500 219 422 -3200
2020-04-02 12:10:36 GMT -6.742161 113.571686 18,000 219 426 -3008
2020-04-02 12:10:24 GMT -6.724503 113.585648 18,575 219 429 -3520
2020-04-02 12:10:15 GMT -6.709202 113.597641 19,050 219 433 -2816
2020-04-02 12:09:46 GMT -6.662979 113.633919 20,300 219 443 -2624
2020-04-02 12:09:43 GMT -6.657349 113.638298 20,450 219 451 -2624
2020-04-02 12:09:32 GMT -6.638763 113.652916 20,925 219 458 -2816
2020-04-02 12:09:18 GMT -6.617706 113.669350 21,450 218 467 -3008
2020-04-02 12:08:57 GMT -6.579208 113.699280 22,625 218 476 -3840
2020-04-02 12:08:49 GMT -6.566147 113.709541 23,050 220 479 -3520
2020-04-02 12:08:39 GMT -6.548080 113.725159 23,725 223 481 -4096
2020-04-02 12:08:24 GMT -6.524110 113.749222 24,525 228 486 -2496
2020-04-02 12:08:17 GMT -6.514664 113.759933 24,750 230 488 -2048
2020-04-02 12:08:07 GMT -6.499298 113.779243 24,975 234 487 0
2020-04-02 12:07:56 GMT -6.485596 113.798668 25,000 236 487 0
2020-04-02 12:07:45 GMT -6.471832 113.818550 25,000 235 486 0
2020-04-02 12:07:34 GMT -6.457352 113.839073 25,000 235 487 0
2020-04-02 12:06:47 GMT -6.395691 113.925758 25,000 235 487 0
2020-04-02 12:06:40 GMT -6.387451 113.937164 25,000 235 488 0
2020-04-02 12:06:31 GMT -6.374072 113.955734 25,000 235 488 0
2020-04-02 12:06:24 GMT -6.365553 113.967484 25,000 235 487 0
2020-04-02 12:06:13 GMT -6.350470 113.988457 25,000 235 488 0
2020-04-02 12:06:09 GMT -6.345337 113.995674 25,000 235 488 0
2020-04-02 12:05:48 GMT -6.317047 114.035759 25,000 235 489 0
2020-04-02 12:05:37 GMT -6.303871 114.054474 25,000 235 486 0
2020-04-02 12:05:26 GMT -6.289215 114.075279 25,025 235 483 0
2020-04-02 12:05:16 GMT -6.275707 114.094482 25,025 235 478 0
2020-04-02 12:04:59 GMT -6.255295 114.123466 25,000 235 470 0
2020-04-02 12:04:55 GMT -6.249126 114.132179 25,000 235 466 128
2020-04-02 12:04:44 GMT -6.235998 114.150887 24,975 235 460 64
2020-04-02 12:04:32 GMT -6.222032 114.170677 24,975 235 456 -512
2020-04-02 12:04:12 GMT -6.196801 114.206337 25,500 235 446 -2752
2020-04-02 12:03:07 GMT -6.122543 114.310837 28,900 235 420 -2496
2020-04-02 12:02:50 GMT -6.105194 114.335274 29,450 235 420 -2496
2020-04-02 12:02:47 GMT -6.100159 114.342438 29,625 235 420 -2432
2020-04-02 12:01:52 GMT -6.037779 114.430229 31,525 235 434 -2048
2020-04-02 12:01:43 GMT -6.026184 114.446533 31,825 235 437 -1984
2020-04-02 12:01:14 GMT -5.993088 114.493370 32,575 235 453 -768
2020-04-02 12:01:11 GMT -5.988340 114.500076 32,625 235 456 -768
2020-04-02 12:00:57 GMT -5.971256 114.524231 32,875 235 467 -2176
2020-04-02 12:00:48 GMT -5.961868 114.537498 33,200 235 467 -3776
2020-04-02 12:00:36 GMT -5.944748 114.561707 33,700 235 474 -2304
2020-04-02 12:00:27 GMT -5.932938 114.578232 33,975 235 481 -576
2020-04-02 12:00:16 GMT -5.920421 114.595787 34,050 235 481 -576
2020-04-02 12:00:06 GMT -5.906967 114.614777 34,200 235 479 -960
2020-04-02 11:59:54 GMT -5.891418 114.636703 34,400 235 477 -960
2020-04-02 11:59:44 GMT -5.879654 114.653320 34,525 235 476 -960
2020-04-02 11:59:35 GMT -5.866466 114.671791 34,700 235 473 -960
2020-04-02 11:59:23 GMT -5.850918 114.693619 34,900 235 472 -960
2020-04-02 11:58:54 GMT -5.813769 114.745712 35,350 235 471 -960
2020-04-02 11:58:50 GMT -5.809845 114.751221 35,400 235 471 -960
2020-04-02 11:58:40 GMT -5.797943 114.768028 35,550 235 470 -960
2020-04-02 11:58:31 GMT -5.785233 114.786011 35,700 235 469 -960
2020-04-02 11:58:20 GMT -5.771407 114.805519 35,875 235 468 -1088
2020-04-02 11:57:17 GMT -5.691696 114.917740 37,025 235 469 -960
2020-04-02 11:57:13 GMT -5.687799 114.923241 37,075 235 469 -960
2020-04-02 11:57:04 GMT -5.677464 114.937828 37,200 235 469 -960
2020-04-02 11:56:27 GMT -5.631180 115.002975 37,800 235 463 -960
2020-04-02 11:56:22 GMT -5.623444 115.013824 37,875 235 461 -1024
2020-04-02 11:55:53 GMT -5.590691 115.065163 38,000 243 461 0
2020-04-02 11:55:46 GMT -5.583939 115.078758 38,000 246 461 -64
2020-04-02 11:55:10 GMT -5.559311 115.149147 38,000 254 459 0
2020-04-02 11:55:02 GMT -5.554147 115.166077 38,000 253 460 0
2020-04-02 11:54:51 GMT -5.547397 115.188103 38,000 254 459 0
2020-04-02 11:53:45 GMT -5.505798 115.323860 38,000 253 461 64
2020-04-02 11:53:35 GMT -5.499252 115.345131 38,000 253 462 0
2020-04-02 11:53:24 GMT -5.492373 115.367432 38,000 253 462 0
2020-04-02 11:53:18 GMT -5.488770 115.379112 38,000 253 462 0
2020-04-02 11:53:12 GMT -5.485017 115.391205 38,000 253 462 0
2020-04-02 11:53:01 GMT -5.477941 115.414124 38,000 253 462 0
2020-04-02 11:52:50 GMT -5.471331 115.435478 38,000 253 463 -64
2020-04-02 11:52:21 GMT -5.452012 115.497803 38,000 253 463 0
2020-04-02 11:52:16 GMT -5.449498 115.506042 38,000 253 463 0
2020-04-02 11:51:52 GMT -5.433975 115.557228 38,000 254 464 0
2020-04-02 11:51:45 GMT -5.429993 115.570633 38,000 254 464 0
2020-04-02 11:51:31 GMT -5.422079 115.597862 38,000 254 464 0
2020-04-02 11:51:22 GMT -5.416672 115.616669 38,000 255 463 0
2020-04-02 11:51:12 GMT -5.410629 115.637756 38,000 254 464 0
2020-04-02 11:50:50 GMT -5.396987 115.683289 38,000 254 464 0
2020-04-02 11:50:40 GMT -5.390808 115.703629 38,000 254 464 0
2020-04-02 11:50:29 GMT -5.383759 115.726677 38,000 254 464 0
2020-04-02 11:50:18 GMT -5.376984 115.748878 38,000 254 464 0
2020-04-02 11:49:58 GMT -5.363846 115.792130 38,000 254 465 0
2020-04-02 11:49:48 GMT -5.357511 115.812897 38,000 254 465 0
2020-04-02 11:49:34 GMT -5.349504 115.839272 38,000 254 465 0
2020-04-02 11:49:23 GMT -5.342568 115.861961 38,000 254 465 0
2020-04-02 11:49:13 GMT -5.335911 115.883789 38,000 254 465 0
2020-04-02 11:49:02 GMT -5.329021 115.906471 38,000 254 465 0
2020-04-02 11:48:51 GMT -5.322224 115.928726 38,000 254 465 0
2020-04-02 11:48:34 GMT -5.311517 115.963768 38,000 254 465 0
2020-04-02 11:48:28 GMT -5.307840 115.975754 38,000 254 466 0
2020-04-02 11:48:23 GMT -5.304886 115.985458 38,000 254 466 0
2020-04-02 11:48:17 GMT -5.301086 115.997841 38,000 254 466 0
2020-04-02 11:48:07 GMT -5.294758 116.018700 38,000 254 466 0
2020-04-02 11:47:57 GMT -5.287994 116.040810 38,000 254 465 0
2020-04-02 11:46:59 GMT -5.251372 116.160767 38,000 254 466 0
2020-04-02 11:46:55 GMT -5.249463 116.166969 38,000 254 466 0
2020-04-02 11:41:57 GMT -5.068887 116.788361 38,000 260 464 0
2020-04-02 11:41:47 GMT -5.064930 116.809479 38,000 260 463 0
2020-04-02 11:41:37 GMT -5.061252 116.829796 38,000 261 463 0
2020-04-02 11:41:24 GMT -5.056641 116.857986 38,000 262 463 0
2020-04-02 11:41:15 GMT -5.053986 116.875771 38,000 262 463 0
2020-04-02 11:41:04 GMT -5.050638 116.898933 38,000 263 462 0
2020-04-02 11:40:53 GMT -5.048584 116.922600 38,000 268 462 0
2020-04-02 11:40:41 GMT -5.048730 116.948044 38,000 276 461 0
2020-04-02 11:40:30 GMT -5.050918 116.972290 38,000 277 461 0
2020-04-02 11:40:21 GMT -5.053013 116.991844 38,000 277 461 0
2020-04-02 11:39:55 GMT -5.059113 117.046806 38,000 277 460 0
2020-04-02 11:39:49 GMT -5.060669 117.060394 38,000 277 460 0
2020-04-02 11:39:37 GMT -5.063347 117.083900 38,000 277 460 0
2020-04-02 11:39:27 GMT -5.065908 117.105927 38,000 277 460 64
2020-04-02 11:39:15 GMT -5.068934 117.132156 38,000 277 460 0
2020-04-02 11:39:05 GMT -5.071060 117.151451 38,000 277 460 0
2020-04-02 11:38:52 GMT -5.074265 117.180313 38,000 277 460 0
2020-04-02 11:38:44 GMT -5.076187 117.197723 38,000 277 460 0
2020-04-02 11:38:33 GMT -5.078663 117.220428 38,000 277 460 0
2020-04-02 11:38:14 GMT -5.083179 117.261108 38,000 277 459 0
2020-04-02 11:38:11 GMT -5.083878 117.267227 38,000 277 459 0
2020-04-02 11:38:00 GMT -5.086577 117.290703 38,000 277 458 0
2020-04-02 11:37:47 GMT -5.089737 117.318390 38,000 277 459 0
2020-04-02 11:37:37 GMT -5.091977 117.338486 38,000 277 459 0
2020-04-02 11:35:43 GMT -5.119536 117.578430 38,000 277 458 0
2020-04-02 11:35:38 GMT -5.120700 117.588989 38,000 277 459 0
2020-04-02 11:35:27 GMT -5.123383 117.613342 38,000 277 459 0
2020-04-02 11:35:14 GMT -5.126358 117.640488 38,000 276 461 0
2020-04-02 11:35:04 GMT -5.128334 117.661537 38,000 275 461 0
2020-04-02 11:34:32 GMT -5.126358 117.730515 37,800 265 462 1600
2020-04-02 11:34:18 GMT -5.123520 117.760033 37,400 265 464 1728
2020-04-02 11:34:09 GMT -5.121677 117.779121 37,150 265 466 1728
2020-04-02 11:34:01 GMT -5.120001 117.796310 36,925 265 467 1792
2020-04-02 11:32:54 GMT -5.105989 117.941071 35,100 265 472 1664
2020-04-02 11:32:21 GMT -5.099006 118.012955 34,250 265 472 1664
2020-04-02 11:32:11 GMT -5.096832 118.035339 33,975 265 472 1600
2020-04-02 11:32:03 GMT -5.095093 118.053215 33,775 265 472 1664
2020-04-02 11:31:52 GMT -5.092815 118.076935 33,475 265 472 1792
2020-04-02 11:31:39 GMT -5.090161 118.104355 33,125 265 472 1792
2020-04-02 11:31:30 GMT -5.088226 118.124161 32,850 265 473 1920
2020-04-02 11:31:00 GMT -5.081772 118.191010 31,900 265 475 2048
2020-04-02 11:30:57 GMT -5.081130 118.197357 31,825 265 476 2048
2020-04-02 11:30:47 GMT -5.078989 118.219330 31,500 265 477 2112
2020-04-02 11:30:36 GMT -5.076754 118.242249 31,150 265 478 2176

Making use of Plane Finder data

You are free to use the raw flight data, aircraft information and images provided in this report for your own purposes provided the data is correctly attributed to Plane Finder. We ask that you please credit Plane Finder and link to planefinder.net in close proximity to the content.

Optionally one of the following logos (no smaller then 150x24px) can be used and must link to planefinder.net

Embedding the Plane Finder map

You are welcome to embed the Plane Finder playback map on your website to offer visitors a more interactive experience. We suggest using the following HTML code:

<iframe src="//planefinder.net/data/report/SJ713-PK-CMS-7700-squawk-2020-04-02/map" width="800" height="600" seamless="seamless"></iframe>

Where our data comes from

Plane Finder has a global network of data feeds and antenna radars that receive data broadcast directly from aircraft. The primary technologies used are ADS-B and MLAT. We also show feeds from the FAA and a FLARM glider feed.

Click here to find out more about the Plane Finder network.

How we collect our data